createdAt,value
2022-09-11T00:02:48.287Z,100225.15
2022-09-11T00:09:28.325Z,100220.00
2022-09-11T00:12:20.292Z,100215.63
2022-09-11T00:15:19.557Z,100214.48
2022-09-11T00:17:50.841Z,100212.83
2022-09-11T00:20:21.035Z,100212.38
2022-09-11T00:26:36.488Z,100201.41
2022-09-11T00:34:05.187Z,100209.02
2022-09-11T00:37:05.727Z,100209.96
2022-09-11T00:39:37.864Z,100214.77
2022-09-11T00:42:11.753Z,100213.11
2022-09-11T00:45:19.394Z,100210.48
2022-09-11T00:48:03.481Z,100201.26
2022-09-11T00:51:04.909Z,100194.14
2022-09-11T00:58:04.517Z,100185.25
2022-09-11T01:01:16.568Z,100184.80
2022-09-11T01:04:12.570Z,100189.38
2022-09-11T01:10:50.561Z,100197.23
2022-09-11T01:18:03.283Z,100200.02
2022-09-11T01:21:48.513Z,100197.31
2022-09-11T01:24:39.228Z,100199.13
2022-09-11T01:27:53.854Z,100197.95
2022-09-11T01:31:19.384Z,100197.46
2022-09-11T01:34:10.782Z,100199.59
2022-09-11T01:36:53.395Z,100199.56
2022-09-11T01:39:30.296Z,100195.53
2022-09-11T01:42:06.007Z,100191.02
2022-09-11T01:44:50.591Z,100191.77
2022-09-11T01:47:32.406Z,100189.31
2022-09-11T01:50:09.130Z,100191.77
2022-09-11T01:56:38.054Z,100189.70
2022-09-11T02:02:31.082Z,100194.34
2022-09-11T02:05:06.423Z,100190.20
2022-09-11T02:07:40.175Z,100189.09
2022-09-11T02:10:15.052Z,100188.06
2022-09-11T02:12:49.743Z,100186.59
2022-09-11T02:15:19.419Z,100187.91
2022-09-11T02:17:54.380Z,100187.64
2022-09-11T02:20:26.115Z,100187.30
2022-09-11T02:22:56.234Z,100184.54
2022-09-11T02:25:25.722Z,100183.59
2022-09-11T02:27:55.124Z,100183.91
2022-09-11T02:30:24.201Z,100183.48
2022-09-11T02:32:56.664Z,100185.60
2022-09-11T02:35:40.149Z,100186.95
2022-09-11T02:38:21.349Z,100189.86
2022-09-11T02:41:08.739Z,100194.02
2022-09-11T02:43:58.247Z,100196.19
2022-09-11T02:46:59.346Z,100200.81
2022-09-11T02:49:44.463Z,100197.59
2022-09-11T02:52:29.001Z,100198.19
2022-09-11T02:55:06.919Z,100194.16
2022-09-11T02:57:42.025Z,100193.15
2022-09-11T03:00:13.419Z,100190.41
2022-09-11T03:02:44.980Z,100189.63
2022-09-11T03:05:15.728Z,100183.98
2022-09-11T03:07:45.069Z,100184.92
2022-09-11T03:10:14.969Z,100185.56
2022-09-11T03:12:48.636Z,100182.84
2022-09-11T03:15:21.969Z,100182.99
2022-09-11T03:17:58.206Z,100187.39
2022-09-11T03:20:27.569Z,100192.02
2022-09-11T03:22:57.843Z,100190.50
2022-09-11T03:25:27.792Z,100197.67
2022-09-11T03:27:58.835Z,100200.05
2022-09-11T03:30:28.860Z,100205.02
2022-09-11T03:33:00.222Z,100209.21
2022-09-11T03:35:31.155Z,100210.41
2022-09-11T03:38:00.367Z,100210.98
2022-09-11T03:40:29.357Z,100213.81
2022-09-11T03:42:59.148Z,100218.85
2022-09-11T03:45:28.592Z,100223.65
2022-09-11T03:47:58.130Z,100224.35
2022-09-11T03:50:27.508Z,100217.06
2022-09-11T03:52:58.074Z,100221.31
2022-09-11T03:55:28.207Z,100229.01
2022-09-11T03:57:58.671Z,100227.27
2022-09-11T04:00:28.370Z,100228.13
2022-09-11T04:02:57.608Z,100229.55
2022-09-11T04:05:27.372Z,100231.58
2022-09-11T04:07:56.831Z,100228.33
2022-09-11T04:11:08.681Z,100236.77
2022-09-11T04:13:55.161Z,100235.61
2022-09-11T04:16:55.716Z,100240.94
2022-09-11T04:19:35.787Z,100240.55
2022-09-11T04:22:05.237Z,100246.88
2022-09-11T04:24:34.648Z,100242.05
2022-09-11T04:27:05.145Z,100241.52
2022-09-11T04:29:35.433Z,100240.95
2022-09-11T04:32:05.734Z,100247.36
2022-09-11T04:34:34.771Z,100252.65
2022-09-11T04:37:05.774Z,100251.55
2022-09-11T04:39:35.689Z,100255.42
2022-09-11T04:42:05.997Z,100257.55
2022-09-11T04:44:35.672Z,100256.86
2022-09-11T04:47:05.229Z,100251.73
2022-09-11T04:49:34.787Z,100256.04
2022-09-11T04:52:05.701Z,100253.88
2022-09-11T04:54:36.445Z,100250.48
2022-09-11T04:57:06.119Z,100251.09
2022-09-11T04:59:36.063Z,100253.38
